Time;durP1;ratioP1;P1;durP2;ratioP2;P2;SDS_P1;SDS_P2;PMS_P1;PMS_P2;Temp;Humidity;BMP_temperature;BMP_pressure;BME280_temperature;BME280_humidity;BME280_pressure;Samples;Min_cycle;Max_cycle;Signal;HPM_P1;HPM_P2
2024/01/27 00:01:43;;;;;;;6.63;4.65;;;;;;;;;;5040732;28;20144;-70
2024/01/27 00:04:10;;;;;;;7.80;5.50;;;;;;;;;;5046229;28;20075;-70
2024/01/27 00:06:37;;;;;;;8.15;4.68;;;;;;;;;;5050690;28;20049;-69
2024/01/27 00:09:05;;;;;;;7.35;5.00;;;;;;;;;;5049700;28;20051;-69
2024/01/27 00:11:32;;;;;;;10.50;4.60;;;;;;;;;;5046047;28;20140;-70
2024/01/27 00:13:59;;;;;;;8.65;4.63;;;;;;;;;;5050611;28;20049;-70
2024/01/27 00:16:25;;;;;;;8.57;4.25;;;;;;;;;;5038928;28;20084;-69
2024/01/27 00:18:51;;;;;;;8.35;4.50;;;;;;;;;;5041778;28;20047;-70
2024/01/27 00:21:18;;;;;;;9.35;5.00;;;;;;;;;;5051159;28;20052;-69
2024/01/27 00:23:45;;;;;;;9.23;4.72;;;;;;;;;;5053768;28;20131;-70
2024/01/27 00:26:12;;;;;;;7.72;4.47;;;;;;;;;;5048184;28;20420;-70
2024/01/27 00:28:38;;;;;;;6.68;4.63;;;;;;;;;;5045714;28;20048;-70
2024/01/27 00:31:05;;;;;;;9.27;5.22;;;;;;;;;;5053409;28;20048;-68
2024/01/27 00:33:31;;;;;;;10.45;4.85;;;;;;;;;;5054464;28;20041;-71
2024/01/27 00:35:57;;;;;;;7.85;4.32;;;;;;;;;;5054452;28;20057;-70
2024/01/27 00:38:24;;;;;;;9.93;4.53;;;;;;;;;;5053541;28;20049;-70
2024/01/27 00:40:51;;;;;;;7.10;4.28;;;;;;;;;;5048886;28;20060;-70
2024/01/27 00:43:18;;;;;;;7.82;4.78;;;;;;;;;;5054307;28;20052;-69
2024/01/27 00:45:44;;;;;;;8.43;4.53;;;;;;;;;;5051410;28;20045;-70
2024/01/27 00:48:10;;;;;;;8.35;4.78;;;;;;;;;;5046232;28;20051;-69
2024/01/27 00:50:37;;;;;;;8.40;4.53;;;;;;;;;;5049724;28;20404;-70
2024/01/27 00:53:03;;;;;;;8.50;5.05;;;;;;;;;;5054524;28;20040;-70
2024/01/27 00:55:29;;;;;;;8.10;4.28;;;;;;;;;;5049489;28;20045;-70
2024/01/27 00:57:58;;;;;;;6.80;3.97;;;;;;;;;;5049262;28;20499;-70
2024/01/27 01:00:25;;;;;;;8.43;4.35;;;;;;;;;;5053471;28;20091;-70
2024/01/27 01:02:51;;;;;;;7.65;4.40;;;;;;;;;;5053121;28;20041;-70
2024/01/27 01:05:17;;;;;;;8.10;4.65;;;;;;;;;;5047662;28;20053;-70
2024/01/27 01:07:44;;;;;;;7.72;4.28;;;;;;;;;;5046464;28;20632;-70
2024/01/27 01:10:10;;;;;;;6.97;4.38;;;;;;;;;;5051592;28;20136;-69
2024/01/27 01:12:37;;;;;;;5.63;3.90;;;;;;;;;;5049538;28;20044;-69
2024/01/27 01:15:05;;;;;;;8.25;4.47;;;;;;;;;;5053708;28;20057;-70
2024/01/27 01:17:31;;;;;;;9.88;3.88;;;;;;;;;;5049211;28;20052;-70
2024/01/27 01:19:58;;;;;;;6.25;4.10;;;;;;;;;;5051624;28;20059;-70
2024/01/27 01:22:24;;;;;;;7.47;4.05;;;;;;;;;;5045222;28;20053;-70
2024/01/27 01:24:51;;;;;;;10.93;4.05;;;;;;;;;;5048563;28;20489;-70
2024/01/27 01:27:18;;;;;;;7.93;3.63;;;;;;;;;;5051736;28;20045;-70
2024/01/27 01:29:45;;;;;;;6.32;3.92;;;;;;;;;;5044911;28;20068;-70
2024/01/27 01:32:13;;;;;;;4.80;3.50;;;;;;;;;;5052393;28;20041;-70
2024/01/27 01:34:39;;;;;;;6.50;3.47;;;;;;;;;;5053200;28;20507;-70
2024/01/27 01:37:05;;;;;;;6.88;3.30;;;;;;;;;;5052841;28;20049;-69
2024/01/27 01:39:32;;;;;;;6.30;3.60;;;;;;;;;;5048763;28;20045;-70
2024/01/27 01:41:58;;;;;;;7.38;3.35;;;;;;;;;;5044779;28;20053;-69
2024/01/27 01:44:28;;;;;;;7.03;3.58;;;;;;;;;;5051962;28;20056;-70
2024/01/27 01:46:54;;;;;;;4.63;3.30;;;;;;;;;;5053099;28;20413;-70
2024/01/27 01:49:22;;;;;;;6.20;3.35;;;;;;;;;;5044734;28;20055;-68
2024/01/27 01:51:48;;;;;;;6.28;3.60;;;;;;;;;;5049444;28;20049;-70
2024/01/27 01:54:15;;;;;;;6.47;3.30;;;;;;;;;;5049747;28;20056;-70
2024/01/27 01:56:43;;;;;;;6.43;3.60;;;;;;;;;;5047728;28;20050;-70
2024/01/27 01:59:09;;;;;;;5.45;2.92;;;;;;;;;;5052211;28;20338;-70
2024/01/27 02:01:35;;;;;;;6.95;2.97;;;;;;;;;;5050657;28;20051;-70
2024/01/27 02:04:02;;;;;;;7.00;3.88;;;;;;;;;;5051479;28;20048;-69
2024/01/27 02:06:29;;;;;;;5.88;3.15;;;;;;;;;;5048799;28;20270;-70
2024/01/27 02:08:56;;;;;;;5.45;2.88;;;;;;;;;;5048216;28;20045;-69
2024/01/27 02:11:21;;;;;;;6.15;3.20;;;;;;;;;;5046708;28;20045;-70
2024/01/27 02:13:47;;;;;;;6.65;3.30;;;;;;;;;;5048414;28;20052;-71
2024/01/27 02:16:14;;;;;;;9.30;3.65;;;;;;;;;;5046848;28;20049;-69
2024/01/27 02:18:40;;;;;;;9.93;4.43;;;;;;;;;;5050712;28;20045;-70
2024/01/27 02:21:06;;;;;;;8.50;3.80;;;;;;;;;;5050900;28;20045;-70
2024/01/27 02:23:34;;;;;;;8.07;3.80;;;;;;;;;;5049393;28;20490;-70
2024/01/27 02:26:02;;;;;;;6.78;3.08;;;;;;;;;;5051245;28;20053;-70
2024/01/27 02:28:31;;;;;;;6.78;3.58;;;;;;;;;;5049867;28;20505;-70
2024/01/27 02:30:59;;;;;;;8.07;3.80;;;;;;;;;;5051444;28;20045;-68
2024/01/27 02:33:25;;;;;;;6.38;3.75;;;;;;;;;;5044571;28;20053;-70
2024/01/27 02:36:03;;;;;;;6.18;3.60;;;;;;;;;;5039687;28;20053;-70
2024/01/27 02:38:30;;;;;;;8.88;3.70;;;;;;;;;;5047798;28;20056;-70
2024/01/27 02:40:56;;;;;;;5.93;3.70;;;;;;;;;;5050517;28;20048;-70
2024/01/27 02:43:24;;;;;;;8.55;3.67;;;;;;;;;;5046219;28;20045;-70
2024/01/27 02:45:50;;;;;;;11.35;4.00;;;;;;;;;;5048594;28;20079;-70
2024/01/27 02:48:17;;;;;;;7.93;3.50;;;;;;;;;;5049432;28;20045;-69
2024/01/27 02:50:43;;;;;;;9.05;4.15;;;;;;;;;;5050902;28;20044;-70
2024/01/27 02:53:09;;;;;;;8.57;3.38;;;;;;;;;;5051448;28;20052;-70
2024/01/27 02:55:36;;;;;;;8.75;3.20;;;;;;;;;;5050666;28;20041;-70
2024/01/27 02:58:02;;;;;;;8.23;3.35;;;;;;;;;;5046973;28;20048;-70
2024/01/27 03:00:30;;;;;;;6.32;3.45;;;;;;;;;;5050831;28;20049;-70
2024/01/27 03:02:58;;;;;;;6.80;4.55;;;;;;;;;;5051533;28;20067;-70
2024/01/27 03:05:23;;;;;;;6.13;3.90;;;;;;;;;;5050707;28;20053;-70
2024/01/27 03:07:49;;;;;;;6.88;3.50;;;;;;;;;;5050810;28;20492;-70
2024/01/27 03:10:16;;;;;;;7.65;3.70;;;;;;;;;;5049050;28;20047;-70
2024/01/27 03:12:42;;;;;;;8.18;3.97;;;;;;;;;;5047729;28;20049;-70
2024/01/27 03:15:09;;;;;;;9.85;3.85;;;;;;;;;;5047898;28;20041;-70
2024/01/27 03:17:37;;;;;;;6.03;4.15;;;;;;;;;;5051513;28;20057;-70
2024/01/27 03:20:03;;;;;;;8.60;3.78;;;;;;;;;;5050384;28;20412;-70
2024/01/27 03:22:29;;;;;;;6.20;3.65;;;;;;;;;;5044878;28;20045;-70
2024/01/27 03:24:56;;;;;;;10.40;3.55;;;;;;;;;;5050411;28;20060;-70
2024/01/27 03:27:22;;;;;;;7.03;3.38;;;;;;;;;;5050081;28;20041;-69
2024/01/27 03:29:48;;;;;;;7.40;3.30;;;;;;;;;;5041496;28;20049;-70
2024/01/27 03:32:15;;;;;;;6.15;3.80;;;;;;;;;;5047064;28;20054;-70
2024/01/27 03:34:44;;;;;;;6.32;3.50;;;;;;;;;;5050888;28;20056;-69
2024/01/27 03:37:10;;;;;;;6.90;3.70;;;;;;;;;;5046378;28;20049;-69
2024/01/27 03:39:37;;;;;;;7.40;3.28;;;;;;;;;;5047491;28;20045;-70
2024/01/27 03:42:03;;;;;;;8.02;3.50;;;;;;;;;;5046609;28;20045;-70
2024/01/27 03:44:30;;;;;;;5.75;3.08;;;;;;;;;;5047017;28;20051;-69
2024/01/27 03:46:56;;;;;;;5.13;3.05;;;;;;;;;;5047304;28;20047;-70
2024/01/27 03:49:22;;;;;;;6.75;3.28;;;;;;;;;;5045609;28;20048;-70
2024/01/27 03:51:50;;;;;;;6.93;3.42;;;;;;;;;;5050384;28;20045;-70
2024/01/27 03:54:16;;;;;;;6.70;2.97;;;;;;;;;;5049396;28;20045;-70
2024/01/27 03:56:43;;;;;;;5.10;3.28;;;;;;;;;;5050003;28;20049;-67
2024/01/27 03:59:11;;;;;;;9.00;3.80;;;;;;;;;;5044841;28;20048;-70
2024/01/27 04:01:37;;;;;;;7.13;3.33;;;;;;;;;;5050240;28;20048;-69
2024/01/27 04:04:04;;;;;;;7.45;3.60;;;;;;;;;;5050407;28;20052;-72
2024/01/27 04:06:36;;;;;;;9.10;3.75;;;;;;;;;;5051091;28;20071;-69
2024/01/27 04:09:04;;;;;;;5.23;3.10;;;;;;;;;;5043645;28;20041;-70
2024/01/27 04:11:30;;;;;;;9.55;3.75;;;;;;;;;;5047528;28;20644;-70
2024/01/27 04:13:57;;;;;;;6.82;3.30;;;;;;;;;;5042387;28;20046;-70
2024/01/27 04:16:23;;;;;;;5.00;3.40;;;;;;;;;;5046068;28;20049;-70
2024/01/27 04:18:49;;;;;;;7.90;3.58;;;;;;;;;;5049792;28;20061;-70
2024/01/27 04:21:16;;;;;;;9.75;3.72;;;;;;;;;;5049790;28;20045;-69
2024/01/27 04:23:42;;;;;;;5.57;3.42;;;;;;;;;;5050232;28;20051;-70
2024/01/27 04:26:10;;;;;;;5.18;3.38;;;;;;;;;;5049370;28;20049;-69
2024/01/27 04:28:36;;;;;;;7.80;4.10;;;;;;;;;;5049846;28;20102;-69
2024/01/27 04:31:03;;;;;;;6.93;3.42;;;;;;;;;;5042311;28;20424;-70
2024/01/27 04:33:29;;;;;;;6.28;3.20;;;;;;;;;;5050297;28;20051;-70
2024/01/27 04:35:55;;;;;;;5.88;3.42;;;;;;;;;;5050315;28;20052;-70
2024/01/27 04:38:22;;;;;;;7.00;3.25;;;;;;;;;;5048519;28;20056;-70
2024/01/27 04:40:48;;;;;;;5.45;3.60;;;;;;;;;;5044020;28;20056;-70
2024/01/27 04:43:17;;;;;;;6.75;3.78;;;;;;;;;;5049001;28;20045;-69
2024/01/27 04:45:43;;;;;;;8.82;3.42;;;;;;;;;;5050040;28;20059;-69
2024/01/27 04:48:09;;;;;;;4.85;3.72;;;;;;;;;;5049296;28;20052;-69
2024/01/27 04:50:36;;;;;;;8.23;3.28;;;;;;;;;;5041962;28;20064;-70
2024/01/27 04:53:02;;;;;;;6.90;2.92;;;;;;;;;;5048401;28;20049;-70
2024/01/27 04:55:29;;;;;;;4.50;3.08;;;;;;;;;;5041933;28;20408;-69
2024/01/27 04:57:55;;;;;;;6.97;3.33;;;;;;;;;;5049507;28;20041;-69
2024/01/27 05:00:23;;;;;;;6.68;3.40;;;;;;;;;;5048653;28;20131;-70
2024/01/27 05:02:49;;;;;;;5.50;3.47;;;;;;;;;;5050027;28;20518;-70
2024/01/27 05:05:16;;;;;;;5.45;3.60;;;;;;;;;;5049725;28;20431;-69
2024/01/27 05:07:42;;;;;;;4.72;3.20;;;;;;;;;;5050173;28;20048;-68
2024/01/27 05:10:11;;;;;;;8.45;2.88;;;;;;;;;;5053157;28;20041;-70
2024/01/27 05:12:37;;;;;;;8.00;3.03;;;;;;;;;;5053761;28;20053;-70
2024/01/27 05:15:04;;;;;;;5.53;3.45;;;;;;;;;;5050642;28;20409;-69
2024/01/27 05:17:32;;;;;;;7.95;2.83;;;;;;;;;;5053404;28;20084;-70
2024/01/27 05:19:59;;;;;;;6.75;3.53;;;;;;;;;;5049106;28;20445;-71
2024/01/27 05:22:25;;;;;;;5.75;2.70;;;;;;;;;;5048892;28;20091;-70
2024/01/27 05:24:51;;;;;;;6.00;3.25;;;;;;;;;;5053638;28;20425;-71
2024/01/27 05:27:18;;;;;;;12.85;6.38;;;;;;;;;;5048637;28;20053;-70
2024/01/27 05:29:44;;;;;;;16.60;7.20;;;;;;;;;;5052098;28;20045;-68
2024/01/27 05:32:10;;;;;;;15.55;5.97;;;;;;;;;;5053180;28;20045;-71
2024/01/27 05:34:38;;;;;;;10.27;4.70;;;;;;;;;;5052927;28;20051;-71
2024/01/27 05:37:05;;;;;;;11.80;4.78;;;;;;;;;;5050647;28;20045;-70
2024/01/27 05:39:32;;;;;;;13.35;4.05;;;;;;;;;;5047344;28;20136;-70
2024/01/27 05:41:58;;;;;;;6.55;3.55;;;;;;;;;;5049665;28;20045;-69
2024/01/27 05:44:25;;;;;;;8.25;3.72;;;;;;;;;;5050431;28;20049;-70
2024/01/27 05:46:51;;;;;;;11.88;3.53;;;;;;;;;;5053021;28;20053;-70
2024/01/27 05:49:17;;;;;;;8.40;3.83;;;;;;;;;;5051950;28;20056;-69
2024/01/27 05:51:45;;;;;;;6.78;3.58;;;;;;;;;;5052661;28;20053;-71
2024/01/27 05:54:14;;;;;;;7.38;3.95;;;;;;;;;;5045055;28;20049;-70
2024/01/27 05:56:41;;;;;;;6.10;3.65;;;;;;;;;;5051001;28;20052;-70
2024/01/27 05:59:07;;;;;;;6.47;3.78;;;;;;;;;;5051850;28;20041;-70
2024/01/27 06:01:33;;;;;;;5.43;3.53;;;;;;;;;;5052229;28;20064;-71
2024/01/27 06:04:00;;;;;;;10.23;3.58;;;;;;;;;;5052992;28;20053;-71
2024/01/27 06:06:26;;;;;;;6.65;3.55;;;;;;;;;;5048535;28;20063;-70
2024/01/27 06:08:54;;;;;;;7.70;4.10;;;;;;;;;;5051972;28;20049;-71
2024/01/27 06:11:24;;;;;;;9.18;4.68;;;;;;;;;;5051749;28;20064;-71
2024/01/27 06:13:50;;;;;;;14.57;8.55;;;;;;;;;;5051678;28;20041;-70
2024/01/27 06:16:18;;;;;;;8.98;4.78;;;;;;;;;;5046125;28;20073;-70
2024/01/27 06:18:45;;;;;;;11.35;5.05;;;;;;;;;;5051552;28;20041;-69
2024/01/27 06:21:11;;;;;;;6.88;3.83;;;;;;;;;;5047726;28;20060;-70
2024/01/27 06:23:38;;;;;;;11.35;4.38;;;;;;;;;;5044626;28;20045;-70
2024/01/27 06:26:07;;;;;;;9.38;5.20;;;;;;;;;;5049511;28;20051;-70
2024/01/27 06:28:34;;;;;;;6.43;3.63;;;;;;;;;;5051423;28;20048;-69
2024/01/27 06:31:00;;;;;;;8.52;3.63;;;;;;;;;;5051776;28;20543;-70
2024/01/27 06:33:27;;;;;;;7.50;3.58;;;;;;;;;;5051320;28;20044;-70
2024/01/27 06:35:53;;;;;;;5.95;3.53;;;;;;;;;;5052022;28;20044;-69
2024/01/27 06:38:19;;;;;;;7.30;3.45;;;;;;;;;;5051020;28;20124;-70
2024/01/27 06:40:46;;;;;;;5.10;3.17;;;;;;;;;;5051474;28;20394;-70
2024/01/27 06:43:14;;;;;;;5.50;3.38;;;;;;;;;;5045819;28;20045;-70
2024/01/27 06:45:41;;;;;;;6.70;3.97;;;;;;;;;;5052176;28;20041;-70
2024/01/27 06:48:07;;;;;;;6.95;3.72;;;;;;;;;;5051276;28;20051;-70
2024/01/27 06:50:34;;;;;;;7.07;3.00;;;;;;;;;;5050976;28;20059;-70
2024/01/27 06:53:00;;;;;;;5.55;3.35;;;;;;;;;;5048711;28;20569;-69
2024/01/27 06:55:27;;;;;;;5.93;3.40;;;;;;;;;;5047693;28;20052;-70
2024/01/27 06:57:53;;;;;;;8.05;4.45;;;;;;;;;;5047748;28;20052;-71
2024/01/27 07:00:21;;;;;;;7.30;4.50;;;;;;;;;;5046569;28;20045;-70
2024/01/27 07:02:48;;;;;;;8.77;4.70;;;;;;;;;;5045684;28;20049;-70
2024/01/27 07:05:15;;;;;;;8.40;5.20;;;;;;;;;;5049288;28;20425;-69
2024/01/27 07:07:41;;;;;;;8.98;4.20;;;;;;;;;;5050669;28;20045;-70
2024/01/27 07:10:08;;;;;;;8.95;3.20;;;;;;;;;;5046367;28;20042;-70
2024/01/27 07:12:35;;;;;;;8.65;3.22;;;;;;;;;;5051191;28;20541;-70
2024/01/27 07:15:01;;;;;;;5.80;3.92;;;;;;;;;;5050461;28;20416;-70
2024/01/27 07:17:29;;;;;;;9.32;4.05;;;;;;;;;;5043794;28;20077;-70
2024/01/27 07:19:56;;;;;;;8.43;3.90;;;;;;;;;;5049276;28;20048;-70
2024/01/27 07:22:23;;;;;;;8.52;3.80;;;;;;;;;;5051133;28;20463;-69
2024/01/27 07:24:51;;;;;;;7.20;3.50;;;;;;;;;;5047991;28;20052;-71
2024/01/27 07:27:17;;;;;;;16.65;3.97;;;;;;;;;;5047135;28;20409;-70
2024/01/27 07:29:44;;;;;;;12.63;3.60;;;;;;;;;;5049638;28;20041;-70
2024/01/27 07:32:13;;;;;;;11.43;4.25;;;;;;;;;;5051246;28;20051;-71
2024/01/27 07:34:40;;;;;;;10.52;3.97;;;;;;;;;;5049893;28;20485;-70
2024/01/27 07:37:07;;;;;;;11.82;3.97;;;;;;;;;;5040889;28;20057;-70
2024/01/27 07:39:34;;;;;;;10.05;4.03;;;;;;;;;;5046825;28;20563;-70
2024/01/27 07:42:00;;;;;;;10.93;4.70;;;;;;;;;;5050390;28;20111;-68
2024/01/27 07:44:27;;;;;;;7.80;3.63;;;;;;;;;;5044924;28;20431;-70
2024/01/27 07:46:54;;;;;;;6.57;4.32;;;;;;;;;;5045642;28;20071;-70
2024/01/27 07:49:20;;;;;;;6.95;3.63;;;;;;;;;;5045843;28;20056;-70
2024/01/27 07:51:48;;;;;;;7.53;4.43;;;;;;;;;;5048420;28;20041;-70
2024/01/27 07:54:14;;;;;;;6.07;3.83;;;;;;;;;;5048590;28;20048;-70
2024/01/27 07:56:41;;;;;;;11.95;4.57;;;;;;;;;;5046950;28;20057;-70
2024/01/27 07:59:13;;;;;;;8.25;4.50;;;;;;;;;;5049798;28;20478;-69
2024/01/27 08:01:39;;;;;;;8.57;4.22;;;;;;;;;;5047290;28;20543;-69
2024/01/27 08:04:06;;;;;;;9.48;4.97;;;;;;;;;;5049667;28;20047;-70
2024/01/27 08:06:32;;;;;;;10.60;4.75;;;;;;;;;;5050500;28;20053;-70
2024/01/27 08:09:00;;;;;;;8.80;5.15;;;;;;;;;;5041785;28;20432;-70
2024/01/27 08:11:27;;;;;;;9.18;4.88;;;;;;;;;;5046196;28;20056;-70
2024/01/27 08:13:53;;;;;;;8.73;4.47;;;;;;;;;;5043253;28;20064;-70
2024/01/27 08:16:20;;;;;;;11.75;4.85;;;;;;;;;;5050649;28;20062;-70
2024/01/27 08:18:46;;;;;;;8.55;4.15;;;;;;;;;;5050124;28;20060;-70
2024/01/27 08:21:12;;;;;;;10.23;4.55;;;;;;;;;;5050043;28;20064;-71
2024/01/27 08:23:39;;;;;;;9.02;4.65;;;;;;;;;;5050507;28;20041;-69
2024/01/27 08:26:06;;;;;;;9.23;4.80;;;;;;;;;;5049497;28;20041;-70
2024/01/27 08:28:33;;;;;;;8.70;4.32;;;;;;;;;;5041737;28;20049;-70
2024/01/27 08:31:01;;;;;;;8.80;4.65;;;;;;;;;;5042006;28;20044;-69
2024/01/27 08:33:27;;;;;;;9.18;4.72;;;;;;;;;;5049602;28;20053;-70
2024/01/27 08:35:54;;;;;;;8.30;4.43;;;;;;;;;;5049334;28;20049;-70
2024/01/27 08:38:20;;;;;;;8.80;4.85;;;;;;;;;;5049687;28;20053;-70
2024/01/27 08:40:47;;;;;;;7.45;4.10;;;;;;;;;;5049855;28;20045;-70
2024/01/27 08:43:14;;;;;;;13.55;5.35;;;;;;;;;;5054067;28;20049;-70
2024/01/27 08:45:41;;;;;;;9.50;4.50;;;;;;;;;;5054175;28;20485;-71
2024/01/27 08:48:08;;;;;;;17.80;5.18;;;;;;;;;;5048745;28;20063;-69
2024/01/27 08:50:35;;;;;;;9.10;4.82;;;;;;;;;;5053211;28;20053;-69
2024/01/27 08:53:01;;;;;;;11.90;5.07;;;;;;;;;;5053800;28;20049;-69
2024/01/27 08:55:27;;;;;;;15.80;6.35;;;;;;;;;;5054053;28;20052;-70
2024/01/27 08:57:54;;;;;;;11.25;5.78;;;;;;;;;;5045202;28;20068;-70
2024/01/27 09:00:22;;;;;;;13.63;5.15;;;;;;;;;;5050525;28;20045;-69
2024/01/27 09:02:48;;;;;;;12.98;5.45;;;;;;;;;;5051198;28;20055;-68
2024/01/27 09:05:15;;;;;;;10.43;4.93;;;;;;;;;;5053623;28;20055;-70
2024/01/27 09:07:41;;;;;;;16.20;7.10;;;;;;;;;;5049272;28;20413;-70
2024/01/27 09:10:08;;;;;;;16.63;7.30;;;;;;;;;;5049168;28;20638;-70
2024/01/27 09:12:34;;;;;;;16.95;6.97;;;;;;;;;;5049295;28;20428;-70
2024/01/27 09:15:01;;;;;;;16.83;6.65;;;;;;;;;;5050420;28;20068;-67
2024/01/27 09:17:28;;;;;;;11.93;5.57;;;;;;;;;;5052757;28;20063;-70
2024/01/27 09:19:55;;;;;;;16.05;6.00;;;;;;;;;;5052333;28;20048;-69
2024/01/27 09:22:21;;;;;;;10.75;5.30;;;;;;;;;;5053407;28;20055;-70
2024/01/27 09:24:47;;;;;;;11.38;5.68;;;;;;;;;;5053562;28;20045;-69
2024/01/27 09:27:14;;;;;;;10.57;5.97;;;;;;;;;;5053104;28;20057;-69
2024/01/27 09:29:40;;;;;;;11.30;5.82;;;;;;;;;;5047247;28;20045;-69
2024/01/27 09:32:06;;;;;;;14.65;6.70;;;;;;;;;;5052490;28;20060;-69
2024/01/27 09:34:34;;;;;;;15.57;6.20;;;;;;;;;;5052447;28;20413;-68
2024/01/27 09:37:01;;;;;;;13.55;6.47;;;;;;;;;;5053324;28;20045;-70
2024/01/27 09:39:27;;;;;;;11.50;6.18;;;;;;;;;;5052116;28;20466;-69
2024/01/27 09:41:54;;;;;;;12.63;6.30;;;;;;;;;;5053315;28;20048;-70
2024/01/27 09:44:22;;;;;;;15.10;7.95;;;;;;;;;;5046244;28;20057;-72
2024/01/27 09:46:49;;;;;;;15.70;7.82;;;;;;;;;;5051538;28;20056;-70
2024/01/27 09:49:15;;;;;;;19.30;8.40;;;;;;;;;;5052796;28;20072;-71
2024/01/27 09:51:43;;;;;;;15.35;7.57;;;;;;;;;;5053837;28;20053;-70
2024/01/27 09:54:10;;;;;;;15.18;7.20;;;;;;;;;;5049157;28;20053;-69
2024/01/27 09:56:36;;;;;;;14.07;6.47;;;;;;;;;;5053579;28;20289;-69
2024/01/27 09:59:02;;;;;;;15.35;6.93;;;;;;;;;;5052809;28;20059;-70
2024/01/27 10:01:29;;;;;;;11.80;6.43;;;;;;;;;;5053048;28;20049;-70
2024/01/27 10:03:55;;;;;;;11.02;6.53;;;;;;;;;;5053360;28;20049;-71
2024/01/27 10:06:22;;;;;;;10.88;5.95;;;;;;;;;;5053618;28;20053;-70
2024/01/27 10:08:54;;;;;;;12.25;6.22;;;;;;;;;;5052769;28;20045;-72
2024/01/27 10:11:21;;;;;;;12.38;6.30;;;;;;;;;;5052676;28;20051;-70
2024/01/27 10:13:54;;;;;;;11.13;6.00;;;;;;;;;;5048631;28;20120;-69
2024/01/27 10:16:20;;;;;;;10.55;5.47;;;;;;;;;;5046058;28;20045;-70
2024/01/27 10:18:47;;;;;;;11.68;5.95;;;;;;;;;;5052634;28;20049;-69
2024/01/27 10:21:13;;;;;;;10.57;5.35;;;;;;;;;;5052597;28;20048;-70
2024/01/27 10:23:40;;;;;;;7.88;5.20;;;;;;;;;;5052829;28;20131;-68
2024/01/27 10:26:09;;;;;;;10.32;5.38;;;;;;;;;;5053295;28;20044;-68
2024/01/27 10:28:35;;;;;;;8.43;5.22;;;;;;;;;;5048645;28;20079;-69
2024/01/27 10:31:08;;;;;;;10.50;5.38;;;;;;;;;;5052535;28;20053;-70
2024/01/27 10:33:34;;;;;;;8.85;4.72;;;;;;;;;;5053586;28;20477;-69
2024/01/27 10:36:01;;;;;;;8.00;4.75;;;;;;;;;;5053278;28;20385;-70
2024/01/27 10:38:34;;;;;;;8.05;4.47;;;;;;;;;;5045159;28;20049;-70
2024/01/27 10:41:01;;;;;;;7.50;4.15;;;;;;;;;;5049550;28;20477;-69
2024/01/27 10:43:29;;;;;;;4.90;3.40;;;;;;;;;;5051765;28;20053;-70
2024/01/27 10:45:57;;;;;;;4.57;3.58;;;;;;;;;;5049948;28;20047;-70
2024/01/27 10:48:24;;;;;;;6.70;3.45;;;;;;;;;;5047137;28;20540;-70
2024/01/27 10:50:51;;;;;;;5.93;3.78;;;;;;;;;;5051164;28;20394;-70
2024/01/27 10:53:21;;;;;;;5.38;3.13;;;;;;;;;;5051318;28;20045;-70
2024/01/27 10:55:48;;;;;;;5.45;3.75;;;;;;;;;;5051614;28;20048;-69
2024/01/27 10:58:15;;;;;;;5.38;3.08;;;;;;;;;;5051123;28;20452;-69
2024/01/27 11:00:44;;;;;;;4.78;3.03;;;;;;;;;;5051518;28;20041;-69
2024/01/27 11:03:11;;;;;;;5.68;3.10;;;;;;;;;;5047043;28;20129;-70
2024/01/27 11:05:37;;;;;;;6.22;3.35;;;;;;;;;;5046820;28;20099;-70
2024/01/27 11:08:05;;;;;;;6.05;3.13;;;;;;;;;;5046475;28;20433;-70
2024/01/27 11:10:35;;;;;;;4.40;2.72;;;;;;;;;;5050768;28;20041;-70
2024/01/27 11:13:02;;;;;;;5.28;3.40;;;;;;;;;;5046924;28;20049;-69
2024/01/27 11:15:28;;;;;;;6.35;3.72;;;;;;;;;;5046333;28;20055;-69
2024/01/27 11:17:59;;;;;;;4.18;2.78;;;;;;;;;;5050800;28;20056;-69
2024/01/27 11:20:26;;;;;;;5.60;3.70;;;;;;;;;;5044237;28;20051;-69
2024/01/27 11:22:54;;;;;;;16.70;8.68;;;;;;;;;;5050437;28;20519;-70
2024/01/27 11:25:21;;;;;;;7.72;4.70;;;;;;;;;;5051268;28;20122;-70
2024/01/27 11:27:47;;;;;;;6.22;4.07;;;;;;;;;;5046185;28;20057;-69
2024/01/27 11:30:25;;;;;;;5.50;3.72;;;;;;;;;;5050769;28;20045;-70
2024/01/27 11:32:53;;;;;;;7.95;4.45;;;;;;;;;;5051064;28;20049;-69
2024/01/27 11:35:21;;;;;;;6.90;4.47;;;;;;;;;;5050927;28;20045;-70
2024/01/27 11:37:48;;;;;;;4.63;3.38;;;;;;;;;;5050533;28;20060;-69
2024/01/27 11:40:15;;;;;;;7.35;4.63;;;;;;;;;;5050646;28;20045;-70
2024/01/27 11:42:41;;;;;;;5.45;4.10;;;;;;;;;;5050400;28;20119;-71
2024/01/27 11:45:08;;;;;;;5.18;3.92;;;;;;;;;;5050937;28;20094;-67
2024/01/27 11:47:35;;;;;;;5.50;3.35;;;;;;;;;;5050873;28;20076;-69
2024/01/27 11:50:01;;;;;;;4.63;3.65;;;;;;;;;;5049893;28;20052;-70
2024/01/27 11:52:29;;;;;;;5.10;3.40;;;;;;;;;;5050363;28;20816;-70
2024/01/27 11:54:56;;;;;;;6.80;3.78;;;;;;;;;;5047896;28;20041;-70
2024/01/27 11:57:22;;;;;;;8.55;3.78;;;;;;;;;;5050706;28;20045;-69
2024/01/27 11:59:49;;;;;;;8.23;4.22;;;;;;;;;;5049416;28;20045;-69
2024/01/27 12:02:15;;;;;;;6.97;4.10;;;;;;;;;;5050663;28;20053;-69
2024/01/27 12:04:42;;;;;;;6.40;3.80;;;;;;;;;;5046626;28;20527;-70
2024/01/27 12:07:09;;;;;;;6.13;3.90;;;;;;;;;;5046384;28;20085;-67
2024/01/27 12:09:37;;;;;;;8.02;4.15;;;;;;;;;;5050656;28;20110;-69
2024/01/27 12:12:04;;;;;;;6.22;3.70;;;;;;;;;;5045306;28;20049;-69
2024/01/27 12:14:38;;;;;;;7.28;3.80;;;;;;;;;;5043019;28;20132;-70
2024/01/27 12:17:04;;;;;;;5.50;3.55;;;;;;;;;;5053373;28;20045;-69
2024/01/27 12:19:31;;;;;;;7.10;4.00;;;;;;;;;;5054099;28;20045;-69
2024/01/27 12:21:57;;;;;;;4.82;3.55;;;;;;;;;;5054210;28;20045;-70
2024/01/27 12:24:24;;;;;;;6.28;3.85;;;;;;;;;;5053602;28;20051;-70
2024/01/27 12:26:52;;;;;;;6.55;3.95;;;;;;;;;;5054408;28;20067;-69
2024/01/27 12:29:20;;;;;;;7.28;3.85;;;;;;;;;;5050926;28;20056;-69
2024/01/27 12:31:47;;;;;;;9.10;4.03;;;;;;;;;;5053969;28;20045;-68
2024/01/27 12:34:13;;;;;;;7.63;3.70;;;;;;;;;;5054229;28;20044;-69
2024/01/27 12:36:41;;;;;;;8.02;4.07;;;;;;;;;;5054601;28;20051;-68
2024/01/27 12:39:07;;;;;;;7.20;3.33;;;;;;;;;;5051012;28;20060;-69
2024/01/27 12:41:35;;;;;;;6.00;3.55;;;;;;;;;;5045721;28;20049;-70
2024/01/27 12:44:03;;;;;;;7.85;3.45;;;;;;;;;;5053652;28;20041;-69
2024/01/27 12:46:29;;;;;;;9.10;3.20;;;;;;;;;;5053758;28;20485;-68
2024/01/27 12:48:56;;;;;;;6.88;3.70;;;;;;;;;;5053466;28;20049;-69
2024/01/27 12:51:22;;;;;;;6.90;3.78;;;;;;;;;;5048668;28;20054;-69
2024/01/27 12:53:48;;;;;;;7.45;3.33;;;;;;;;;;5050107;28;20056;-70
2024/01/27 12:56:15;;;;;;;5.78;3.55;;;;;;;;;;5049657;28;20053;-68
2024/01/27 12:58:42;;;;;;;8.57;3.63;;;;;;;;;;5053709;28;20051;-70
2024/01/27 13:01:10;;;;;;;6.18;3.88;;;;;;;;;;5053225;28;20041;-69
2024/01/27 13:03:37;;;;;;;7.22;3.30;;;;;;;;;;5053748;28;20059;-69
2024/01/27 13:06:03;;;;;;;8.05;3.42;;;;;;;;;;5053853;28;20412;-69
2024/01/27 13:08:30;;;;;;;8.30;3.00;;;;;;;;;;5049012;28;20517;-68
2024/01/27 13:10:56;;;;;;;6.50;3.25;;;;;;;;;;5047716;28;20049;-69
2024/01/27 13:13:22;;;;;;;9.32;4.13;;;;;;;;;;5048329;28;20059;-69
2024/01/27 13:15:49;;;;;;;6.07;3.22;;;;;;;;;;5053818;28;20053;-70
2024/01/27 13:18:16;;;;;;;7.20;3.17;;;;;;;;;;5050391;28;20433;-69
2024/01/27 13:20:43;;;;;;;6.40;2.90;;;;;;;;;;5047727;28;20508;-69
2024/01/27 13:23:09;;;;;;;7.07;2.92;;;;;;;;;;5050100;28;20095;-69
2024/01/27 13:25:36;;;;;;;6.78;2.78;;;;;;;;;;5049734;28;20045;-69
2024/01/27 13:28:02;;;;;;;6.25;2.85;;;;;;;;;;5051578;28;20049;-68
2024/01/27 13:30:29;;;;;;;7.05;3.00;;;;;;;;;;5052940;28;20057;-70
2024/01/27 13:32:55;;;;;;;4.55;2.75;;;;;;;;;;5050793;28;20049;-69
2024/01/27 13:35:23;;;;;;;5.38;2.95;;;;;;;;;;5048903;28;21238;-69
2024/01/27 13:37:50;;;;;;;5.75;2.83;;;;;;;;;;5052956;28;20041;-70
2024/01/27 13:40:17;;;;;;;7.32;3.13;;;;;;;;;;5051306;28;20051;-69
2024/01/27 13:42:43;;;;;;;7.80;3.42;;;;;;;;;;5053105;28;20056;-69
2024/01/27 13:45:11;;;;;;;8.73;3.88;;;;;;;;;;5048803;28;20041;-70
2024/01/27 13:47:37;;;;;;;9.77;3.58;;;;;;;;;;5053209;28;20127;-70
2024/01/27 13:50:03;;;;;;;5.38;3.20;;;;;;;;;;5046324;28;20136;-70
2024/01/27 13:52:31;;;;;;;9.60;3.80;;;;;;;;;;5049765;28;20056;-70
2024/01/27 13:54:57;;;;;;;7.50;3.60;;;;;;;;;;5052170;28;20051;-71
2024/01/27 13:57:23;;;;;;;8.15;4.85;;;;;;;;;;5048712;28;20041;-70
2024/01/27 13:59:49;;;;;;;9.60;4.25;;;;;;;;;;5051707;28;20413;-70
2024/01/27 14:02:16;;;;;;;7.70;3.88;;;;;;;;;;5043400;28;20052;-70
2024/01/27 14:04:42;;;;;;;9.07;3.55;;;;;;;;;;5049066;28;20045;-70
2024/01/27 14:07:09;;;;;;;7.10;3.97;;;;;;;;;;5052550;28;20049;-68
2024/01/27 14:09:37;;;;;;;8.90;4.20;;;;;;;;;;5052074;28;20065;-70
2024/01/27 14:12:03;;;;;;;8.73;3.72;;;;;;;;;;5051666;28;20067;-70
2024/01/27 14:14:31;;;;;;;7.47;3.97;;;;;;;;;;5045503;28;20107;-70
2024/01/27 14:16:57;;;;;;;5.88;3.55;;;;;;;;;;5052911;28;20413;-71
2024/01/27 14:19:24;;;;;;;6.70;3.97;;;;;;;;;;5049681;28;20132;-70
2024/01/27 14:21:50;;;;;;;8.60;4.07;;;;;;;;;;5050375;28;20060;-70
2024/01/27 14:24:17;;;;;;;8.32;4.10;;;;;;;;;;5052463;28;20535;-70
2024/01/27 14:26:44;;;;;;;9.90;4.25;;;;;;;;;;5052231;28;20420;-70
2024/01/27 14:29:11;;;;;;;5.03;3.40;;;;;;;;;;5051628;28;20056;-70
2024/01/27 14:31:37;;;;;;;11.10;3.63;;;;;;;;;;5052200;28;20049;-70
2024/01/27 14:34:04;;;;;;;8.93;4.40;;;;;;;;;;5052554;28;20052;-70
2024/01/27 14:36:30;;;;;;;7.60;3.85;;;;;;;;;;5052449;28;20041;-69
2024/01/27 14:38:57;;;;;;;7.22;3.38;;;;;;;;;;5051172;28;20132;-70